sensor_id;sensor_type;location;lat;lon;timestamp;P1;durP1;ratioP1;P2;durP2;ratioP2
6671;SDS011;3372;48.690;12.362;2022-12-29T00:00:04;6.03;;;4.63;;
6671;SDS011;3372;48.690;12.362;2022-12-29T00:02:30;6.10;;;5.20;;
6671;SDS011;3372;48.690;12.362;2022-12-29T00:04:56;8.97;;;5.53;;
6671;SDS011;3372;48.690;12.362;2022-12-29T00:07:22;12.17;;;8.70;;
6671;SDS011;3372;48.690;12.362;2022-12-29T00:09:50;8.73;;;5.47;;
6671;SDS011;3372;48.690;12.362;2022-12-29T00:12:16;9.80;;;6.83;;
6671;SDS011;3372;48.690;12.362;2022-12-29T00:14:41;6.83;;;4.97;;
6671;SDS011;3372;48.690;12.362;2022-12-29T00:17:25;6.77;;;4.53;;
6671;SDS011;3372;48.690;12.362;2022-12-29T00:19:51;7.17;;;4.90;;
6671;SDS011;3372;48.690;12.362;2022-12-29T00:22:35;7.40;;;4.93;;
6671;SDS011;3372;48.690;12.362;2022-12-29T00:25:19;5.60;;;4.50;;
6671;SDS011;3372;48.690;12.362;2022-12-29T00:28:07;8.70;;;4.07;;
6671;SDS011;3372;48.690;12.362;2022-12-29T00:30:52;6.40;;;4.63;;
6671;SDS011;3372;48.690;12.362;2022-12-29T00:33:36;5.93;;;4.33;;
6671;SDS011;3372;48.690;12.362;2022-12-29T00:36:21;7.87;;;4.83;;
6671;SDS011;3372;48.690;12.362;2022-12-29T00:38:51;6.57;;;4.60;;
6671;SDS011;3372;48.690;12.362;2022-12-29T00:41:40;7.10;;;4.93;;
6671;SDS011;3372;48.690;12.362;2022-12-29T00:44:24;5.83;;;4.90;;
6671;SDS011;3372;48.690;12.362;2022-12-29T00:46:49;6.57;;;4.87;;
6671;SDS011;3372;48.690;12.362;2022-12-29T00:49:15;5.43;;;4.40;;
6671;SDS011;3372;48.690;12.362;2022-12-29T00:52:06;6.67;;;4.90;;
6671;SDS011;3372;48.690;12.362;2022-12-29T00:54:34;8.40;;;4.90;;
6671;SDS011;3372;48.690;12.362;2022-12-29T00:57:02;8.20;;;4.37;;
6671;SDS011;3372;48.690;12.362;2022-12-29T00:59:29;6.20;;;4.57;;
6671;SDS011;3372;48.690;12.362;2022-12-29T01:01:55;7.50;;;4.83;;
6671;SDS011;3372;48.690;12.362;2022-12-29T01:04:21;6.50;;;4.40;;
6671;SDS011;3372;48.690;12.362;2022-12-29T01:06:48;5.90;;;4.53;;
6671;SDS011;3372;48.690;12.362;2022-12-29T01:09:14;9.40;;;4.87;;
6671;SDS011;3372;48.690;12.362;2022-12-29T01:11:59;6.30;;;4.83;;
6671;SDS011;3372;48.690;12.362;2022-12-29T01:14:25;7.33;;;5.30;;
6671;SDS011;3372;48.690;12.362;2022-12-29T01:16:51;7.50;;;5.37;;
6671;SDS011;3372;48.690;12.362;2022-12-29T01:19:17;6.90;;;5.13;;
6671;SDS011;3372;48.690;12.362;2022-12-29T01:21:43;8.40;;;5.60;;
6671;SDS011;3372;48.690;12.362;2022-12-29T01:24:09;9.03;;;5.80;;
6671;SDS011;3372;48.690;12.362;2022-12-29T01:26:35;10.30;;;5.83;;
6671;SDS011;3372;48.690;12.362;2022-12-29T01:29:00;6.53;;;5.00;;
6671;SDS011;3372;48.690;12.362;2022-12-29T01:31:26;6.20;;;4.60;;
6671;SDS011;3372;48.690;12.362;2022-12-29T01:33:52;8.40;;;5.00;;
6671;SDS011;3372;48.690;12.362;2022-12-29T01:36:17;7.03;;;5.13;;
6671;SDS011;3372;48.690;12.362;2022-12-29T01:38:44;10.53;;;6.80;;
6671;SDS011;3372;48.690;12.362;2022-12-29T01:41:11;8.20;;;5.83;;
6671;SDS011;3372;48.690;12.362;2022-12-29T01:43:38;8.63;;;6.20;;
6671;SDS011;3372;48.690;12.362;2022-12-29T01:46:05;7.50;;;5.20;;
6671;SDS011;3372;48.690;12.362;2022-12-29T01:48:40;7.70;;;4.40;;
6671;SDS011;3372;48.690;12.362;2022-12-29T01:51:06;8.10;;;5.13;;
6671;SDS011;3372;48.690;12.362;2022-12-29T01:53:32;4.93;;;4.10;;
6671;SDS011;3372;48.690;12.362;2022-12-29T01:56:01;6.20;;;4.90;;
6671;SDS011;3372;48.690;12.362;2022-12-29T01:58:30;7.63;;;5.50;;
6671;SDS011;3372;48.690;12.362;2022-12-29T02:01:01;7.27;;;5.37;;
6671;SDS011;3372;48.690;12.362;2022-12-29T02:03:27;7.77;;;6.23;;
6671;SDS011;3372;48.690;12.362;2022-12-29T02:08:36;6.87;;;5.00;;
6671;SDS011;3372;48.690;12.362;2022-12-29T02:11:04;7.70;;;5.53;;
6671;SDS011;3372;48.690;12.362;2022-12-29T02:13:30;7.57;;;5.37;;
6671;SDS011;3372;48.690;12.362;2022-12-29T02:21:53;6.90;;;5.50;;
6671;SDS011;3372;48.690;12.362;2022-12-29T02:24:31;6.77;;;5.57;;
6671;SDS011;3372;48.690;12.362;2022-12-29T02:32:59;7.60;;;5.17;;
6671;SDS011;3372;48.690;12.362;2022-12-29T02:41:19;5.80;;;5.07;;
6671;SDS011;3372;48.690;12.362;2022-12-29T02:43:54;10.83;;;5.03;;
6671;SDS011;3372;48.690;12.362;2022-12-29T02:49:11;6.67;;;4.93;;
6671;SDS011;3372;48.690;12.362;2022-12-29T02:51:42;6.90;;;4.70;;
6671;SDS011;3372;48.690;12.362;2022-12-29T02:54:16;5.80;;;4.70;;
6671;SDS011;3372;48.690;12.362;2022-12-29T02:57:09;7.70;;;5.40;;
6671;SDS011;3372;48.690;12.362;2022-12-29T02:59:45;6.20;;;4.73;;
6671;SDS011;3372;48.690;12.362;2022-12-29T03:11:04;7.13;;;5.17;;
6671;SDS011;3372;48.690;12.362;2022-12-29T03:13:52;7.60;;;5.40;;
6671;SDS011;3372;48.690;12.362;2022-12-29T03:16:44;7.70;;;4.50;;
6671;SDS011;3372;48.690;12.362;2022-12-29T03:21:46;9.40;;;5.67;;
6671;SDS011;3372;48.690;12.362;2022-12-29T03:24:43;5.77;;;4.70;;
6671;SDS011;3372;48.690;12.362;2022-12-29T03:27:13;6.97;;;4.90;;
6671;SDS011;3372;48.690;12.362;2022-12-29T03:29:45;6.93;;;5.40;;
6671;SDS011;3372;48.690;12.362;2022-12-29T03:32:17;7.20;;;5.30;;
6671;SDS011;3372;48.690;12.362;2022-12-29T03:34:46;5.10;;;4.37;;
6671;SDS011;3372;48.690;12.362;2022-12-29T03:37:14;7.47;;;5.03;;
6671;SDS011;3372;48.690;12.362;2022-12-29T03:39:43;7.67;;;4.87;;
6671;SDS011;3372;48.690;12.362;2022-12-29T03:42:11;7.27;;;4.83;;
6671;SDS011;3372;48.690;12.362;2022-12-29T03:44:41;7.17;;;5.27;;
6671;SDS011;3372;48.690;12.362;2022-12-29T03:47:09;7.80;;;4.80;;
6671;SDS011;3372;48.690;12.362;2022-12-29T03:49:36;6.50;;;5.53;;
6671;SDS011;3372;48.690;12.362;2022-12-29T03:52:02;6.13;;;4.93;;
6671;SDS011;3372;48.690;12.362;2022-12-29T03:54:28;5.77;;;4.60;;
6671;SDS011;3372;48.690;12.362;2022-12-29T03:56:54;4.77;;;3.93;;
6671;SDS011;3372;48.690;12.362;2022-12-29T03:59:20;4.40;;;3.67;;
6671;SDS011;3372;48.690;12.362;2022-12-29T04:01:46;5.73;;;3.97;;
6671;SDS011;3372;48.690;12.362;2022-12-29T04:04:11;5.80;;;4.17;;
6671;SDS011;3372;48.690;12.362;2022-12-29T04:06:37;5.80;;;4.37;;
6671;SDS011;3372;48.690;12.362;2022-12-29T04:09:03;6.27;;;4.20;;
6671;SDS011;3372;48.690;12.362;2022-12-29T04:11:29;5.87;;;3.87;;
6671;SDS011;3372;48.690;12.362;2022-12-29T04:13:54;5.70;;;4.10;;
6671;SDS011;3372;48.690;12.362;2022-12-29T04:16:20;7.53;;;4.80;;
6671;SDS011;3372;48.690;12.362;2022-12-29T04:18:45;6.73;;;4.70;;
6671;SDS011;3372;48.690;12.362;2022-12-29T04:21:11;5.20;;;4.10;;
6671;SDS011;3372;48.690;12.362;2022-12-29T04:23:37;5.97;;;4.20;;
6671;SDS011;3372;48.690;12.362;2022-12-29T04:26:03;6.93;;;4.67;;
6671;SDS011;3372;48.690;12.362;2022-12-29T04:28:32;6.47;;;3.90;;
6671;SDS011;3372;48.690;12.362;2022-12-29T04:30:57;7.10;;;4.33;;
6671;SDS011;3372;48.690;12.362;2022-12-29T04:33:23;5.30;;;3.73;;
6671;SDS011;3372;48.690;12.362;2022-12-29T04:35:49;7.57;;;3.60;;
6671;SDS011;3372;48.690;12.362;2022-12-29T04:38:14;5.10;;;3.80;;
6671;SDS011;3372;48.690;12.362;2022-12-29T04:40:41;5.70;;;3.93;;
6671;SDS011;3372;48.690;12.362;2022-12-29T04:43:08;4.37;;;3.40;;
6671;SDS011;3372;48.690;12.362;2022-12-29T04:45:34;5.10;;;3.53;;
6671;SDS011;3372;48.690;12.362;2022-12-29T04:48:00;4.63;;;3.33;;
6671;SDS011;3372;48.690;12.362;2022-12-29T04:50:26;5.40;;;3.77;;
6671;SDS011;3372;48.690;12.362;2022-12-29T04:52:51;4.37;;;3.23;;
6671;SDS011;3372;48.690;12.362;2022-12-29T04:55:17;5.40;;;3.47;;
6671;SDS011;3372;48.690;12.362;2022-12-29T04:57:42;5.27;;;3.53;;
6671;SDS011;3372;48.690;12.362;2022-12-29T05:00:08;4.40;;;3.50;;
6671;SDS011;3372;48.690;12.362;2022-12-29T05:02:35;5.40;;;4.23;;
6671;SDS011;3372;48.690;12.362;2022-12-29T05:05:01;5.33;;;4.13;;
6671;SDS011;3372;48.690;12.362;2022-12-29T05:07:26;5.70;;;4.00;;
6671;SDS011;3372;48.690;12.362;2022-12-29T05:09:52;4.43;;;3.60;;
6671;SDS011;3372;48.690;12.362;2022-12-29T05:12:18;5.30;;;3.57;;
6671;SDS011;3372;48.690;12.362;2022-12-29T05:14:43;4.87;;;3.50;;
6671;SDS011;3372;48.690;12.362;2022-12-29T05:17:09;4.60;;;3.30;;
6671;SDS011;3372;48.690;12.362;2022-12-29T05:19:34;4.67;;;3.33;;
6671;SDS011;3372;48.690;12.362;2022-12-29T05:22:00;4.67;;;3.40;;
6671;SDS011;3372;48.690;12.362;2022-12-29T05:24:26;4.50;;;3.20;;
6671;SDS011;3372;48.690;12.362;2022-12-29T05:26:51;6.47;;;3.80;;
6671;SDS011;3372;48.690;12.362;2022-12-29T05:29:17;5.57;;;3.80;;
6671;SDS011;3372;48.690;12.362;2022-12-29T05:31:43;6.90;;;3.67;;
6671;SDS011;3372;48.690;12.362;2022-12-29T05:34:10;5.10;;;3.80;;
6671;SDS011;3372;48.690;12.362;2022-12-29T05:36:36;4.20;;;3.53;;
6671;SDS011;3372;48.690;12.362;2022-12-29T05:39:01;4.70;;;3.47;;
6671;SDS011;3372;48.690;12.362;2022-12-29T05:41:27;5.00;;;3.07;;
6671;SDS011;3372;48.690;12.362;2022-12-29T05:43:53;5.10;;;3.63;;
6671;SDS011;3372;48.690;12.362;2022-12-29T05:46:18;5.13;;;3.43;;
6671;SDS011;3372;48.690;12.362;2022-12-29T05:48:44;5.53;;;3.77;;
6671;SDS011;3372;48.690;12.362;2022-12-29T05:51:09;3.60;;;3.07;;
6671;SDS011;3372;48.690;12.362;2022-12-29T05:53:35;4.77;;;3.17;;
6671;SDS011;3372;48.690;12.362;2022-12-29T05:56:00;4.00;;;3.00;;
6671;SDS011;3372;48.690;12.362;2022-12-29T05:58:26;4.07;;;2.90;;
6671;SDS011;3372;48.690;12.362;2022-12-29T06:00:51;3.77;;;3.00;;
6671;SDS011;3372;48.690;12.362;2022-12-29T06:03:17;5.77;;;2.97;;
6671;SDS011;3372;48.690;12.362;2022-12-29T06:05:44;6.43;;;5.50;;
6671;SDS011;3372;48.690;12.362;2022-12-29T06:08:12;4.87;;;3.07;;
6671;SDS011;3372;48.690;12.362;2022-12-29T06:10:38;4.57;;;3.40;;
6671;SDS011;3372;48.690;12.362;2022-12-29T06:13:04;6.70;;;3.63;;
6671;SDS011;3372;48.690;12.362;2022-12-29T06:15:31;3.30;;;3.00;;
6671;SDS011;3372;48.690;12.362;2022-12-29T06:17:57;5.20;;;3.47;;
6671;SDS011;3372;48.690;12.362;2022-12-29T06:20:22;4.53;;;3.40;;
6671;SDS011;3372;48.690;12.362;2022-12-29T06:22:48;4.10;;;3.23;;
6671;SDS011;3372;48.690;12.362;2022-12-29T06:25:14;5.60;;;3.60;;
6671;SDS011;3372;48.690;12.362;2022-12-29T06:27:40;4.30;;;3.10;;
6671;SDS011;3372;48.690;12.362;2022-12-29T06:30:05;4.50;;;3.30;;
6671;SDS011;3372;48.690;12.362;2022-12-29T06:32:31;5.63;;;4.53;;
6671;SDS011;3372;48.690;12.362;2022-12-29T06:34:58;10.67;;;6.10;;
6671;SDS011;3372;48.690;12.362;2022-12-29T06:37:24;4.10;;;3.17;;
6671;SDS011;3372;48.690;12.362;2022-12-29T06:39:50;4.03;;;2.93;;
6671;SDS011;3372;48.690;12.362;2022-12-29T06:42:15;4.77;;;2.90;;
6671;SDS011;3372;48.690;12.362;2022-12-29T06:44:41;4.40;;;3.07;;
6671;SDS011;3372;48.690;12.362;2022-12-29T06:47:06;7.10;;;5.20;;
6671;SDS011;3372;48.690;12.362;2022-12-29T06:49:32;9.67;;;6.40;;
6671;SDS011;3372;48.690;12.362;2022-12-29T06:51:57;26.63;;;14.73;;
6671;SDS011;3372;48.690;12.362;2022-12-29T06:54:25;17.60;;;11.53;;
6671;SDS011;3372;48.690;12.362;2022-12-29T06:56:51;12.03;;;9.10;;
6671;SDS011;3372;48.690;12.362;2022-12-29T06:59:16;10.13;;;6.53;;
6671;SDS011;3372;48.690;12.362;2022-12-29T07:01:42;10.43;;;7.37;;
6671;SDS011;3372;48.690;12.362;2022-12-29T07:04:08;27.17;;;16.10;;
6671;SDS011;3372;48.690;12.362;2022-12-29T07:06:33;19.70;;;12.00;;
6671;SDS011;3372;48.690;12.362;2022-12-29T07:08:59;38.73;;;20.50;;
6671;SDS011;3372;48.690;12.362;2022-12-29T07:11:24;64.17;;;31.97;;
6671;SDS011;3372;48.690;12.362;2022-12-29T07:13:50;60.83;;;30.50;;
6671;SDS011;3372;48.690;12.362;2022-12-29T07:16:16;84.00;;;40.47;;
6671;SDS011;3372;48.690;12.362;2022-12-29T07:18:41;60.90;;;32.57;;
6671;SDS011;3372;48.690;12.362;2022-12-29T07:21:07;50.93;;;29.10;;
6671;SDS011;3372;48.690;12.362;2022-12-29T07:23:33;45.57;;;26.97;;
6671;SDS011;3372;48.690;12.362;2022-12-29T07:25:59;50.47;;;26.80;;
6671;SDS011;3372;48.690;12.362;2022-12-29T07:28:26;36.40;;;22.03;;
6671;SDS011;3372;48.690;12.362;2022-12-29T07:30:52;11.93;;;8.60;;
6671;SDS011;3372;48.690;12.362;2022-12-29T07:33:17;8.00;;;5.83;;
6671;SDS011;3372;48.690;12.362;2022-12-29T07:35:43;5.33;;;3.90;;
6671;SDS011;3372;48.690;12.362;2022-12-29T07:38:08;5.27;;;3.77;;
6671;SDS011;3372;48.690;12.362;2022-12-29T07:40:34;8.57;;;5.83;;
6671;SDS011;3372;48.690;12.362;2022-12-29T07:42:59;8.13;;;5.00;;
6671;SDS011;3372;48.690;12.362;2022-12-29T07:45:25;4.97;;;4.13;;
6671;SDS011;3372;48.690;12.362;2022-12-29T07:47:50;4.37;;;3.43;;
6671;SDS011;3372;48.690;12.362;2022-12-29T07:50:16;8.80;;;5.30;;
6671;SDS011;3372;48.690;12.362;2022-12-29T07:52:42;6.20;;;4.53;;
6671;SDS011;3372;48.690;12.362;2022-12-29T07:55:08;4.90;;;4.03;;
6671;SDS011;3372;48.690;12.362;2022-12-29T07:57:34;7.20;;;4.17;;
6671;SDS011;3372;48.690;12.362;2022-12-29T07:59:59;5.07;;;3.50;;
6671;SDS011;3372;48.690;12.362;2022-12-29T08:02:25;5.53;;;3.90;;
6671;SDS011;3372;48.690;12.362;2022-12-29T08:04:54;7.37;;;4.90;;
6671;SDS011;3372;48.690;12.362;2022-12-29T08:07:20;6.87;;;4.90;;
6671;SDS011;3372;48.690;12.362;2022-12-29T08:09:46;5.70;;;3.60;;
6671;SDS011;3372;48.690;12.362;2022-12-29T08:12:11;5.97;;;3.10;;
6671;SDS011;3372;48.690;12.362;2022-12-29T08:14:37;5.73;;;3.33;;
6671;SDS011;3372;48.690;12.362;2022-12-29T08:17:03;5.60;;;3.97;;
6671;SDS011;3372;48.690;12.362;2022-12-29T08:19:28;3.37;;;2.50;;
6671;SDS011;3372;48.690;12.362;2022-12-29T08:21:54;17.10;;;8.87;;
6671;SDS011;3372;48.690;12.362;2022-12-29T08:24:20;6.43;;;4.20;;
6671;SDS011;3372;48.690;12.362;2022-12-29T08:26:45;9.60;;;5.30;;
6671;SDS011;3372;48.690;12.362;2022-12-29T08:29:11;7.63;;;4.60;;
6671;SDS011;3372;48.690;12.362;2022-12-29T08:31:36;6.73;;;4.67;;
6671;SDS011;3372;48.690;12.362;2022-12-29T08:34:02;4.83;;;3.40;;
6671;SDS011;3372;48.690;12.362;2022-12-29T08:36:28;4.77;;;3.23;;
6671;SDS011;3372;48.690;12.362;2022-12-29T08:38:55;5.03;;;3.20;;
6671;SDS011;3372;48.690;12.362;2022-12-29T08:41:20;4.00;;;3.10;;
6671;SDS011;3372;48.690;12.362;2022-12-29T08:43:46;4.77;;;3.80;;
6671;SDS011;3372;48.690;12.362;2022-12-29T08:46:12;4.40;;;3.10;;
6671;SDS011;3372;48.690;12.362;2022-12-29T08:48:38;5.40;;;3.40;;
6671;SDS011;3372;48.690;12.362;2022-12-29T08:51:03;5.17;;;3.63;;
6671;SDS011;3372;48.690;12.362;2022-12-29T08:53:29;7.03;;;4.47;;
6671;SDS011;3372;48.690;12.362;2022-12-29T08:55:56;5.13;;;2.90;;
6671;SDS011;3372;48.690;12.362;2022-12-29T08:58:23;8.90;;;4.00;;
6671;SDS011;3372;48.690;12.362;2022-12-29T09:00:49;6.13;;;3.77;;
6671;SDS011;3372;48.690;12.362;2022-12-29T09:03:16;4.80;;;3.33;;
6671;SDS011;3372;48.690;12.362;2022-12-29T09:05:42;5.17;;;3.40;;
6671;SDS011;3372;48.690;12.362;2022-12-29T09:08:07;3.50;;;2.90;;
6671;SDS011;3372;48.690;12.362;2022-12-29T09:10:33;4.60;;;2.90;;
6671;SDS011;3372;48.690;12.362;2022-12-29T09:12:58;4.40;;;3.10;;
6671;SDS011;3372;48.690;12.362;2022-12-29T09:15:24;3.60;;;2.67;;
6671;SDS011;3372;48.690;12.362;2022-12-29T09:17:49;3.30;;;2.80;;
6671;SDS011;3372;48.690;12.362;2022-12-29T09:20:16;3.13;;;2.63;;
6671;SDS011;3372;48.690;12.362;2022-12-29T09:22:42;4.47;;;3.10;;
6671;SDS011;3372;48.690;12.362;2022-12-29T09:25:09;4.07;;;3.00;;
6671;SDS011;3372;48.690;12.362;2022-12-29T09:27:35;4.77;;;3.07;;
6671;SDS011;3372;48.690;12.362;2022-12-29T09:30:01;4.00;;;2.60;;
6671;SDS011;3372;48.690;12.362;2022-12-29T09:32:31;4.17;;;2.80;;
6671;SDS011;3372;48.690;12.362;2022-12-29T09:34:57;3.73;;;2.80;;
6671;SDS011;3372;48.690;12.362;2022-12-29T09:37:22;5.73;;;2.80;;
6671;SDS011;3372;48.690;12.362;2022-12-29T09:39:48;7.50;;;4.30;;
6671;SDS011;3372;48.690;12.362;2022-12-29T09:42:18;5.30;;;3.17;;
6671;SDS011;3372;48.690;12.362;2022-12-29T09:47:25;6.07;;;4.57;;
6671;SDS011;3372;48.690;12.362;2022-12-29T09:52:25;9.97;;;4.70;;
6671;SDS011;3372;48.690;12.362;2022-12-29T09:57:46;6.30;;;4.20;;
6671;SDS011;3372;48.690;12.362;2022-12-29T10:00:21;4.10;;;3.00;;
6671;SDS011;3372;48.690;12.362;2022-12-29T10:02:54;5.20;;;3.37;;
6671;SDS011;3372;48.690;12.362;2022-12-29T10:05:27;6.70;;;5.00;;
6671;SDS011;3372;48.690;12.362;2022-12-29T10:08:11;8.20;;;4.90;;
6671;SDS011;3372;48.690;12.362;2022-12-29T10:10:43;7.50;;;5.33;;
6671;SDS011;3372;48.690;12.362;2022-12-29T10:16:15;3.00;;;2.20;;
6671;SDS011;3372;48.690;12.362;2022-12-29T10:18:54;4.47;;;2.07;;
6671;SDS011;3372;48.690;12.362;2022-12-29T10:24:07;6.60;;;4.70;;
6671;SDS011;3372;48.690;12.362;2022-12-29T10:26:40;4.60;;;3.33;;
6671;SDS011;3372;48.690;12.362;2022-12-29T10:29:20;5.97;;;3.33;;
6671;SDS011;3372;48.690;12.362;2022-12-29T10:32:00;5.17;;;3.37;;
6671;SDS011;3372;48.690;12.362;2022-12-29T10:34:31;5.90;;;3.93;;
6671;SDS011;3372;48.690;12.362;2022-12-29T10:39:59;4.27;;;2.80;;
6671;SDS011;3372;48.690;12.362;2022-12-29T10:42:37;3.97;;;2.60;;
6671;SDS011;3372;48.690;12.362;2022-12-29T10:45:13;13.93;;;4.60;;
6671;SDS011;3372;48.690;12.362;2022-12-29T10:47:50;4.37;;;2.30;;
6671;SDS011;3372;48.690;12.362;2022-12-29T10:50:29;3.50;;;2.50;;
6671;SDS011;3372;48.690;12.362;2022-12-29T10:52:55;3.30;;;2.13;;
6671;SDS011;3372;48.690;12.362;2022-12-29T10:55:31;4.73;;;1.90;;
6671;SDS011;3372;48.690;12.362;2022-12-29T10:57:59;4.40;;;2.70;;
6671;SDS011;3372;48.690;12.362;2022-12-29T11:00:29;4.80;;;2.40;;
6671;SDS011;3372;48.690;12.362;2022-12-29T11:05:46;6.13;;;3.30;;
6671;SDS011;3372;48.690;12.362;2022-12-29T11:08:24;4.43;;;2.60;;
6671;SDS011;3372;48.690;12.362;2022-12-29T11:10:59;3.53;;;2.60;;
6671;SDS011;3372;48.690;12.362;2022-12-29T11:13:30;5.40;;;3.53;;
6671;SDS011;3372;48.690;12.362;2022-12-29T11:15:57;6.23;;;3.87;;
6671;SDS011;3372;48.690;12.362;2022-12-29T11:18:26;3.30;;;2.30;;
6671;SDS011;3372;48.690;12.362;2022-12-29T11:21:05;2.60;;;2.10;;
6671;SDS011;3372;48.690;12.362;2022-12-29T11:23:56;2.63;;;1.80;;
6671;SDS011;3372;48.690;12.362;2022-12-29T11:26:24;4.37;;;1.97;;
6671;SDS011;3372;48.690;12.362;2022-12-29T11:31:41;3.50;;;2.00;;
6671;SDS011;3372;48.690;12.362;2022-12-29T11:34:08;6.87;;;5.00;;
6671;SDS011;3372;48.690;12.362;2022-12-29T11:36:41;3.43;;;2.27;;
6671;SDS011;3372;48.690;12.362;2022-12-29T11:39:07;5.53;;;4.10;;
6671;SDS011;3372;48.690;12.362;2022-12-29T11:41:52;3.63;;;2.57;;
6671;SDS011;3372;48.690;12.362;2022-12-29T11:44:18;4.30;;;2.20;;
6671;SDS011;3372;48.690;12.362;2022-12-29T11:46:44;9.17;;;2.17;;
6671;SDS011;3372;48.690;12.362;2022-12-29T11:49:13;3.97;;;2.30;;
6671;SDS011;3372;48.690;12.362;2022-12-29T11:51:49;3.17;;;2.27;;
6671;SDS011;3372;48.690;12.362;2022-12-29T11:54:27;3.60;;;2.00;;
6671;SDS011;3372;48.690;12.362;2022-12-29T11:56:57;4.20;;;1.90;;
6671;SDS011;3372;48.690;12.362;2022-12-29T11:59:24;3.83;;;2.00;;
6671;SDS011;3372;48.690;12.362;2022-12-29T12:01:54;4.30;;;2.10;;
6671;SDS011;3372;48.690;12.362;2022-12-29T12:04:26;4.20;;;2.60;;
6671;SDS011;3372;48.690;12.362;2022-12-29T12:09:47;4.00;;;2.17;;
6671;SDS011;3372;48.690;12.362;2022-12-29T12:12:23;3.03;;;1.70;;
6671;SDS011;3372;48.690;12.362;2022-12-29T12:14:55;3.47;;;2.00;;
6671;SDS011;3372;48.690;12.362;2022-12-29T12:17:29;3.50;;;1.53;;
6671;SDS011;3372;48.690;12.362;2022-12-29T12:23:06;2.00;;;1.50;;
6671;SDS011;3372;48.690;12.362;2022-12-29T12:25:55;3.67;;;1.63;;
6671;SDS011;3372;48.690;12.362;2022-12-29T12:28:30;2.93;;;1.80;;
6671;SDS011;3372;48.690;12.362;2022-12-29T12:31:19;3.63;;;1.90;;
6671;SDS011;3372;48.690;12.362;2022-12-29T12:34:02;2.33;;;1.67;;
6671;SDS011;3372;48.690;12.362;2022-12-29T12:39:26;4.50;;;3.10;;
6671;SDS011;3372;48.690;12.362;2022-12-29T12:42:29;5.10;;;2.40;;
6671;SDS011;3372;48.690;12.362;2022-12-29T12:45:26;3.97;;;3.07;;
6671;SDS011;3372;48.690;12.362;2022-12-29T12:51:01;10.67;;;7.50;;
6671;SDS011;3372;48.690;12.362;2022-12-29T12:59:13;6.60;;;5.53;;
6671;SDS011;3372;48.690;12.362;2022-12-29T13:01:58;6.93;;;5.63;;
6671;SDS011;3372;48.690;12.362;2022-12-29T13:04:34;8.27;;;7.10;;
6671;SDS011;3372;48.690;12.362;2022-12-29T13:10:00;5.60;;;4.30;;
6671;SDS011;3372;48.690;12.362;2022-12-29T13:12:39;5.07;;;3.63;;
6671;SDS011;3372;48.690;12.362;2022-12-29T13:20:45;6.27;;;5.60;;
6671;SDS011;3372;48.690;12.362;2022-12-29T13:28:58;9.53;;;6.50;;
6671;SDS011;3372;48.690;12.362;2022-12-29T13:31:48;5.70;;;4.13;;
6671;SDS011;3372;48.690;12.362;2022-12-29T13:34:40;6.50;;;5.13;;
6671;SDS011;3372;48.690;12.362;2022-12-29T13:37:22;3.30;;;2.83;;
6671;SDS011;3372;48.690;12.362;2022-12-29T13:39:52;9.60;;;8.60;;
6671;SDS011;3372;48.690;12.362;2022-12-29T13:42:22;7.87;;;7.10;;
6671;SDS011;3372;48.690;12.362;2022-12-29T13:44:51;7.57;;;6.33;;
6671;SDS011;3372;48.690;12.362;2022-12-29T13:49:56;6.00;;;5.40;;
6671;SDS011;3372;48.690;12.362;2022-12-29T13:55:28;12.57;;;11.47;;
6671;SDS011;3372;48.690;12.362;2022-12-29T14:01:50;18.40;;;16.23;;
6671;SDS011;3372;48.690;12.362;2022-12-29T14:03:57;8.03;;;4.70;;
6671;SDS011;3372;48.690;12.362;2022-12-29T14:06:34;15.70;;;14.30;;
6671;SDS011;3372;48.690;12.362;2022-12-29T14:09:25;4.87;;;2.97;;
6671;SDS011;3372;48.690;12.362;2022-12-29T14:12:19;4.60;;;3.53;;
6671;SDS011;3372;48.690;12.362;2022-12-29T14:14:50;8.63;;;7.83;;
6671;SDS011;3372;48.690;12.362;2022-12-29T14:17:18;3.70;;;2.90;;
6671;SDS011;3372;48.690;12.362;2022-12-29T14:19:45;4.50;;;2.40;;
6671;SDS011;3372;48.690;12.362;2022-12-29T14:22:16;3.67;;;3.10;;
6671;SDS011;3372;48.690;12.362;2022-12-29T14:24:49;3.23;;;2.47;;
6671;SDS011;3372;48.690;12.362;2022-12-29T14:34:58;4.13;;;2.43;;
6671;SDS011;3372;48.690;12.362;2022-12-29T14:37:35;9.00;;;8.20;;
6671;SDS011;3372;48.690;12.362;2022-12-29T14:42:42;3.70;;;2.10;;
6671;SDS011;3372;48.690;12.362;2022-12-29T14:45:24;5.17;;;2.40;;
6671;SDS011;3372;48.690;12.362;2022-12-29T14:47:53;3.40;;;1.63;;
6671;SDS011;3372;48.690;12.362;2022-12-29T14:51:02;3.20;;;2.10;;
6671;SDS011;3372;48.690;12.362;2022-12-29T14:56:11;4.00;;;2.80;;
6671;SDS011;3372;48.690;12.362;2022-12-29T14:58:49;4.07;;;2.93;;
6671;SDS011;3372;48.690;12.362;2022-12-29T15:04:05;4.93;;;3.50;;
6671;SDS011;3372;48.690;12.362;2022-12-29T15:06:40;6.40;;;2.43;;
6671;SDS011;3372;48.690;12.362;2022-12-29T15:09:27;5.67;;;3.57;;
6671;SDS011;3372;48.690;12.362;2022-12-29T15:12:19;18.23;;;15.10;;
6671;SDS011;3372;48.690;12.362;2022-12-29T15:17:42;5.50;;;3.10;;
6671;SDS011;3372;48.690;12.362;2022-12-29T15:23:03;6.53;;;5.17;;
6671;SDS011;3372;48.690;12.362;2022-12-29T15:25:35;7.23;;;2.90;;
6671;SDS011;3372;48.690;12.362;2022-12-29T15:28:02;5.50;;;2.60;;
6671;SDS011;3372;48.690;12.362;2022-12-29T15:30:30;5.30;;;3.00;;
6671;SDS011;3372;48.690;12.362;2022-12-29T15:32:56;4.67;;;2.80;;
6671;SDS011;3372;48.690;12.362;2022-12-29T15:35:34;4.23;;;3.23;;
6671;SDS011;3372;48.690;12.362;2022-12-29T15:38:12;7.33;;;3.43;;
6671;SDS011;3372;48.690;12.362;2022-12-29T15:40:40;4.80;;;2.90;;
6671;SDS011;3372;48.690;12.362;2022-12-29T15:45:58;7.43;;;5.93;;
6671;SDS011;3372;48.690;12.362;2022-12-29T15:48:26;3.43;;;2.93;;
6671;SDS011;3372;48.690;12.362;2022-12-29T15:50:52;7.13;;;4.10;;
6671;SDS011;3372;48.690;12.362;2022-12-29T15:53:26;4.00;;;3.40;;
6671;SDS011;3372;48.690;12.362;2022-12-29T15:55:54;5.33;;;4.83;;
6671;SDS011;3372;48.690;12.362;2022-12-29T15:58:25;3.53;;;3.20;;
6671;SDS011;3372;48.690;12.362;2022-12-29T16:00:54;4.37;;;3.10;;
6671;SDS011;3372;48.690;12.362;2022-12-29T16:03:21;4.63;;;3.30;;
6671;SDS011;3372;48.690;12.362;2022-12-29T16:05:51;10.17;;;6.87;;
6671;SDS011;3372;48.690;12.362;2022-12-29T16:08:32;7.13;;;4.60;;
6671;SDS011;3372;48.690;12.362;2022-12-29T16:11:02;6.47;;;5.10;;
6671;SDS011;3372;48.690;12.362;2022-12-29T16:13:48;8.13;;;5.13;;
6671;SDS011;3372;48.690;12.362;2022-12-29T16:16:18;6.33;;;4.00;;
6671;SDS011;3372;48.690;12.362;2022-12-29T16:18:47;5.70;;;4.00;;
6671;SDS011;3372;48.690;12.362;2022-12-29T16:21:16;6.63;;;4.10;;
6671;SDS011;3372;48.690;12.362;2022-12-29T16:23:50;8.00;;;4.27;;
6671;SDS011;3372;48.690;12.362;2022-12-29T16:26:18;5.50;;;4.23;;
6671;SDS011;3372;48.690;12.362;2022-12-29T16:28:50;7.77;;;3.87;;
6671;SDS011;3372;48.690;12.362;2022-12-29T16:31:22;6.77;;;3.00;;
6671;SDS011;3372;48.690;12.362;2022-12-29T16:33:49;4.13;;;3.00;;
6671;SDS011;3372;48.690;12.362;2022-12-29T16:36:23;4.73;;;3.33;;
6671;SDS011;3372;48.690;12.362;2022-12-29T16:39:54;5.77;;;3.20;;
6671;SDS011;3372;48.690;12.362;2022-12-29T16:41:57;9.17;;;4.00;;
6671;SDS011;3372;48.690;12.362;2022-12-29T16:44:27;8.53;;;3.67;;
6671;SDS011;3372;48.690;12.362;2022-12-29T16:49:20;6.90;;;4.10;;
6671;SDS011;3372;48.690;12.362;2022-12-29T16:51:46;11.50;;;8.00;;
6671;SDS011;3372;48.690;12.362;2022-12-29T16:54:18;10.33;;;7.63;;
6671;SDS011;3372;48.690;12.362;2022-12-29T16:56:49;11.07;;;7.40;;
6671;SDS011;3372;48.690;12.362;2022-12-29T16:59:22;9.37;;;7.00;;
6671;SDS011;3372;48.690;12.362;2022-12-29T17:01:56;6.97;;;4.30;;
6671;SDS011;3372;48.690;12.362;2022-12-29T17:04:23;11.33;;;6.10;;
6671;SDS011;3372;48.690;12.362;2022-12-29T17:06:48;9.80;;;6.93;;
6671;SDS011;3372;48.690;12.362;2022-12-29T17:11:44;8.20;;;6.00;;
6671;SDS011;3372;48.690;12.362;2022-12-29T17:17:32;5.87;;;3.47;;
6671;SDS011;3372;48.690;12.362;2022-12-29T17:20:22;6.80;;;4.87;;
6671;SDS011;3372;48.690;12.362;2022-12-29T17:22:51;5.77;;;3.60;;
6671;SDS011;3372;48.690;12.362;2022-12-29T17:25:36;4.10;;;2.80;;
6671;SDS011;3372;48.690;12.362;2022-12-29T17:30:48;3.87;;;3.10;;